createdAt,value
2019-02-11T00:00:56.966Z,18.7
2019-02-11T00:01:57.450Z,18.68
2019-02-11T00:02:56.843Z,18.69
2019-02-11T00:03:59.833Z,18.68
2019-02-11T00:04:57.504Z,18.67
2019-02-11T00:05:58.333Z,18.67
2019-02-11T00:06:57.061Z,18.67
2019-02-11T00:07:56.889Z,18.67
2019-02-11T00:08:56.950Z,18.66
2019-02-11T00:09:57.000Z,18.65
2019-02-11T00:10:57.197Z,18.65
2019-02-11T00:11:56.897Z,18.65
2019-02-11T00:12:57.036Z,18.65
2019-02-11T00:13:57.229Z,18.65
2019-02-11T00:14:56.823Z,18.63
2019-02-11T00:15:56.950Z,18.64
2019-02-11T00:16:56.939Z,18.62
2019-02-11T00:17:56.828Z,18.62
2019-02-11T00:18:56.805Z,18.61
2019-02-11T00:19:57.060Z,18.61
2019-02-11T00:20:57.236Z,18.62
2019-02-11T00:21:57.067Z,18.61
2019-02-11T00:22:57.388Z,18.6
2019-02-11T00:23:57.804Z,18.6
2019-02-11T00:24:57.622Z,18.6
2019-02-11T00:25:57.001Z,18.59
2019-02-11T00:26:57.324Z,18.58
2019-02-11T00:27:56.706Z,18.58
2019-02-11T00:28:57.330Z,18.58
2019-02-11T00:29:57.272Z,18.57
2019-02-11T00:30:56.776Z,18.57
2019-02-11T00:31:57.776Z,18.57
2019-02-11T00:32:57.448Z,18.56
2019-02-11T00:33:57.089Z,18.56
2019-02-11T00:34:58.223Z,18.55
2019-02-11T00:35:58.388Z,18.55
2019-02-11T00:36:56.975Z,18.55
2019-02-11T00:37:58.839Z,18.54
2019-02-11T00:38:56.900Z,18.54
2019-02-11T00:39:56.732Z,18.53
2019-02-11T00:40:57.423Z,18.54
2019-02-11T00:41:58.658Z,18.53
2019-02-11T00:42:57.078Z,18.52
2019-02-11T00:43:57.546Z,18.52
2019-02-11T00:44:56.746Z,18.51
2019-02-11T00:45:56.961Z,18.51
2019-02-11T00:46:56.549Z,18.5
2019-02-11T00:47:56.775Z,18.5
2019-02-11T00:48:56.986Z,18.51
2019-02-11T00:49:56.928Z,18.5
2019-02-11T00:50:57.289Z,18.49
2019-02-11T00:51:57.700Z,18.49
2019-02-11T00:52:57.106Z,18.49
2019-02-11T00:53:58.708Z,18.48
2019-02-11T00:54:57.147Z,18.48
2019-02-11T00:55:57.132Z,18.47
2019-02-11T00:56:57.021Z,18.47
2019-02-11T00:57:57.636Z,18.47
2019-02-11T00:58:57.538Z,18.47
2019-02-11T00:59:58.794Z,18.46
2019-02-11T01:00:57.265Z,18.45
2019-02-11T01:01:56.841Z,18.43
2019-02-11T01:02:57.106Z,18.44
2019-02-11T01:03:56.768Z,18.43
2019-02-11T01:04:56.740Z,18.43
2019-02-11T01:05:57.105Z,18.43
2019-02-11T01:06:57.078Z,18.42
2019-02-11T01:07:57.525Z,18.43
2019-02-11T01:08:56.771Z,18.43
2019-02-11T01:09:57.245Z,18.42
2019-02-11T01:10:57.330Z,18.41
2019-02-11T01:11:56.799Z,18.42
2019-02-11T01:12:57.629Z,18.4
2019-02-11T01:13:57.344Z,18.4
2019-02-11T01:14:57.659Z,18.39
2019-02-11T01:15:57.365Z,18.39
2019-02-11T01:16:57.087Z,18.39
2019-02-11T01:17:56.869Z,18.4
2019-02-11T01:18:57.729Z,18.39
2019-02-11T01:19:57.107Z,18.39
2019-02-11T01:20:56.996Z,18.38
2019-02-11T01:21:58.561Z,18.37
2019-02-11T01:22:57.335Z,18.38
2019-02-11T01:23:56.868Z,18.38
2019-02-11T01:24:56.569Z,18.37
2019-02-11T01:25:56.867Z,18.37
2019-02-11T01:26:57.359Z,18.36
2019-02-11T01:27:57.144Z,18.36
2019-02-11T01:28:57.071Z,18.35
2019-02-11T01:29:56.810Z,18.34
2019-02-11T01:30:57.278Z,18.34
2019-02-11T01:31:57.267Z,18.34
2019-02-11T01:32:56.762Z,18.33
2019-02-11T01:33:57.006Z,18.34
2019-02-11T01:34:57.285Z,18.33
2019-02-11T01:35:57.085Z,18.32
2019-02-11T01:36:57.121Z,18.33
2019-02-11T01:37:56.918Z,18.32
2019-02-11T01:38:57.314Z,18.32
2019-02-11T01:39:57.132Z,18.31
2019-02-11T01:40:57.223Z,18.31
2019-02-11T01:41:57.368Z,18.31
2019-02-11T01:42:57.303Z,18.3
2019-02-11T01:43:56.630Z,18.3
2019-02-11T01:44:57.240Z,18.3
2019-02-11T01:45:57.759Z,18.3
2019-02-11T01:46:56.687Z,18.3
2019-02-11T01:47:58.756Z,18.3
2019-02-11T01:48:56.913Z,18.29
2019-02-11T01:49:56.816Z,18.28
2019-02-11T01:50:58.776Z,18.29
2019-02-11T01:51:56.606Z,18.29
2019-02-11T01:52:56.657Z,18.28
2019-02-11T01:53:56.552Z,18.28
2019-02-11T01:54:57.046Z,18.27
2019-02-11T01:55:56.891Z,18.28
2019-02-11T01:56:56.765Z,18.27
2019-02-11T01:57:57.141Z,18.26
2019-02-11T01:58:56.992Z,18.27
2019-02-11T01:59:56.702Z,18.27
2019-02-11T02:00:56.905Z,18.25
2019-02-11T02:01:56.886Z,18.25
2019-02-11T02:02:56.859Z,18.25
2019-02-11T02:03:57.229Z,18.24
2019-02-11T02:04:56.889Z,18.25
2019-02-11T02:05:57.209Z,18.24
2019-02-11T02:06:57.853Z,18.24
2019-02-11T02:07:57.957Z,18.23
2019-02-11T02:08:57.241Z,18.23
2019-02-11T02:09:56.787Z,18.23
2019-02-11T02:10:56.796Z,18.23
2019-02-11T02:11:57.378Z,18.22
2019-02-11T02:12:58.639Z,18.21
2019-02-11T02:13:56.926Z,18.21
2019-02-11T02:14:56.752Z,18.23
2019-02-11T02:15:57.372Z,18.22
2019-02-11T02:16:57.313Z,18.21
2019-02-11T02:17:57.117Z,18.21
2019-02-11T02:18:56.769Z,18.2
2019-02-11T02:19:57.195Z,18.2
2019-02-11T02:20:57.098Z,18.2
2019-02-11T02:21:57.432Z,18.19
2019-02-11T02:22:56.919Z,18.19
2019-02-11T02:23:56.735Z,18.19
2019-02-11T02:24:58.759Z,18.18
2019-02-11T02:25:57.302Z,18.18
2019-02-11T02:26:56.836Z,18.18
2019-02-11T02:27:56.884Z,18.18
2019-02-11T02:28:56.762Z,18.17
2019-02-11T02:29:57.490Z,18.18
2019-02-11T02:30:56.721Z,18.16
2019-02-11T02:31:56.670Z,18.17
2019-02-11T02:32:56.997Z,18.16
2019-02-11T02:33:57.217Z,18.16
2019-02-11T02:34:57.014Z,18.15
2019-02-11T02:35:57.545Z,18.14
2019-02-11T02:36:56.734Z,18.15
2019-02-11T02:37:57.142Z,18.13
2019-02-11T02:38:57.355Z,18.12
2019-02-11T02:39:56.869Z,18.13
2019-02-11T02:40:56.787Z,18.13
2019-02-11T02:41:56.619Z,18.13
2019-02-11T02:42:56.795Z,18.12
2019-02-11T02:43:57.413Z,18.12
2019-02-11T02:44:57.140Z,18.12
2019-02-11T02:45:57.302Z,18.12
2019-02-11T02:46:57.104Z,18.12
2019-02-11T02:47:56.783Z,18.1
2019-02-11T02:48:58.053Z,18.1
2019-02-11T02:49:57.862Z,18.09
2019-02-11T02:50:57.353Z,18.11
2019-02-11T02:51:57.052Z,18.09
2019-02-11T02:52:56.957Z,18.1
2019-02-11T02:53:57.640Z,18.09
2019-02-11T02:54:56.592Z,18.07
2019-02-11T02:55:58.672Z,18.08
2019-02-11T02:56:57.175Z,18.07
2019-02-11T02:57:58.584Z,18.07
2019-02-11T02:58:57.312Z,18.08
2019-02-11T02:59:57.083Z,18.07
2019-02-11T03:00:57.105Z,18.06
2019-02-11T03:01:56.843Z,18.05
2019-02-11T03:02:57.017Z,18.06
2019-02-11T03:03:56.649Z,18.06
2019-02-11T03:04:56.845Z,18.06
2019-02-11T03:05:57.273Z,18.06
2019-02-11T03:06:58.585Z,18.05
2019-02-11T03:07:57.580Z,18.04
2019-02-11T03:08:57.213Z,18.04
2019-02-11T03:09:57.579Z,18.03
2019-02-11T03:10:56.693Z,18.02
2019-02-11T03:11:56.900Z,18.03
2019-02-11T03:12:57.407Z,18.03
2019-02-11T03:14:05.319Z,18.03
2019-02-11T03:14:56.986Z,18.02
2019-02-11T03:15:56.787Z,18.02
2019-02-11T03:16:57.302Z,18.02
2019-02-11T03:17:56.916Z,18.02
2019-02-11T03:18:57.271Z,18.01
2019-02-11T03:19:56.632Z,18
2019-02-11T03:20:56.785Z,18
2019-02-11T03:21:58.774Z,18
2019-02-11T03:22:58.611Z,18
2019-02-11T03:23:57.832Z,18
2019-02-11T03:24:57.016Z,18
2019-02-11T03:25:57.365Z,17.99
2019-02-11T03:26:56.898Z,17.98
2019-02-11T03:27:56.701Z,17.99
2019-02-11T03:28:56.967Z,17.99
2019-02-11T03:29:56.899Z,17.98
2019-02-11T03:30:56.797Z,17.98
2019-02-11T03:31:59.822Z,17.97
2019-02-11T03:32:56.667Z,17.97
2019-02-11T03:33:56.914Z,17.97
2019-02-11T03:34:57.570Z,17.97
2019-02-11T03:35:56.627Z,17.96
2019-02-11T03:36:56.955Z,17.96
2019-02-11T03:37:56.913Z,17.96
2019-02-11T03:38:56.679Z,17.96
2019-02-11T03:39:56.836Z,17.95
2019-02-11T03:40:56.937Z,17.94
2019-02-11T03:41:56.974Z,17.95
2019-02-11T03:42:56.989Z,17.95
2019-02-11T03:43:58.581Z,17.95
2019-02-11T03:44:56.831Z,17.94
2019-02-11T03:45:57.106Z,17.95
2019-02-11T03:46:56.735Z,17.94
2019-02-11T03:47:57.535Z,17.94
2019-02-11T03:48:57.152Z,17.93
2019-02-11T03:49:56.851Z,17.93
2019-02-11T03:50:56.850Z,17.92
2019-02-11T03:51:57.070Z,17.92
2019-02-11T03:52:58.284Z,17.92
2019-02-11T03:53:57.363Z,17.92
2019-02-11T03:54:56.980Z,17.92
2019-02-11T03:55:57.045Z,17.92
2019-02-11T03:56:58.704Z,17.91
2019-02-11T03:57:57.107Z,17.9
2019-02-11T03:58:56.836Z,17.91
2019-02-11T03:59:56.806Z,17.91
2019-02-11T04:00:57.047Z,17.91
2019-02-11T04:01:58.685Z,17.9
2019-02-11T04:02:57.033Z,17.91
2019-02-11T04:03:56.736Z,17.9
2019-02-11T04:04:56.844Z,17.91
2019-02-11T04:05:56.664Z,17.9
2019-02-11T04:06:57.670Z,17.89
2019-02-11T04:07:57.060Z,17.9
2019-02-11T04:08:56.885Z,17.89
2019-02-11T04:09:56.719Z,17.89
2019-02-11T04:10:57.208Z,17.89
2019-02-11T04:11:57.463Z,17.88
2019-02-11T04:12:57.225Z,17.88
2019-02-11T04:13:56.886Z,17.88
2019-02-11T04:14:56.979Z,17.87
2019-02-11T04:15:57.136Z,17.87
2019-02-11T04:16:56.601Z,17.86
2019-02-11T04:17:56.819Z,17.86
2019-02-11T04:18:57.140Z,17.86
2019-02-11T04:19:56.742Z,17.86
2019-02-11T04:20:57.105Z,17.86
2019-02-11T04:21:56.688Z,17.85
2019-02-11T04:22:56.748Z,17.86
2019-02-11T04:23:57.064Z,17.85
2019-02-11T04:24:58.222Z,17.85
2019-02-11T04:25:57.294Z,17.84
2019-02-11T04:26:57.144Z,17.83
2019-02-11T04:27:57.386Z,17.83
2019-02-11T04:28:57.010Z,17.83
2019-02-11T04:29:57.010Z,17.83
2019-02-11T04:30:56.851Z,17.83
2019-02-11T04:31:57.239Z,17.83
2019-02-11T04:32:57.033Z,17.82
2019-02-11T04:33:58.282Z,17.82
2019-02-11T04:34:57.559Z,17.82
2019-02-11T04:35:57.087Z,17.82
2019-02-11T04:36:56.790Z,17.81
2019-02-11T04:37:56.844Z,17.81
2019-02-11T04:38:57.072Z,17.81
2019-02-11T04:39:57.288Z,17.81
2019-02-11T04:40:57.628Z,17.81
2019-02-11T04:41:56.910Z,17.82
2019-02-11T04:42:57.081Z,17.81
2019-02-11T04:43:56.609Z,17.82
2019-02-11T04:44:57.653Z,17.83
2019-02-11T04:45:56.718Z,17.83
2019-02-11T04:46:57.041Z,17.83
2019-02-11T04:47:56.893Z,17.84
2019-02-11T04:48:57.152Z,17.84
2019-02-11T04:49:56.715Z,17.85
2019-02-11T04:50:56.859Z,17.84
2019-02-11T04:51:58.861Z,17.85
2019-02-11T04:52:57.390Z,17.85
2019-02-11T04:53:57.708Z,17.86
2019-02-11T04:54:56.601Z,17.87
2019-02-11T04:55:57.177Z,17.88
2019-02-11T04:56:58.528Z,17.88
2019-02-11T04:57:56.577Z,17.89
2019-02-11T04:58:57.218Z,17.89
2019-02-11T04:59:57.332Z,17.91
2019-02-11T05:00:58.609Z,17.91
2019-02-11T05:01:56.769Z,17.92
2019-02-11T05:02:57.259Z,17.92
2019-02-11T05:03:57.242Z,17.93
2019-02-11T05:04:56.740Z,17.94
2019-02-11T05:05:56.880Z,17.96
2019-02-11T05:06:57.091Z,17.97
2019-02-11T05:07:57.501Z,17.97
2019-02-11T05:08:57.506Z,18
2019-02-11T05:09:57.499Z,18
2019-02-11T05:10:56.604Z,18.03
2019-02-11T05:11:57.042Z,18.03
2019-02-11T05:12:56.706Z,18.06
2019-02-11T05:13:56.956Z,18.07
2019-02-11T05:14:57.233Z,18.08
2019-02-11T05:15:56.615Z,18.09
2019-02-11T05:16:56.939Z,18.11
2019-02-11T05:17:57.378Z,18.13
2019-02-11T05:18:57.105Z,18.15
2019-02-11T05:19:57.087Z,18.17
2019-02-11T05:20:56.838Z,18.18
2019-02-11T05:21:56.645Z,18.2
2019-02-11T05:22:57.099Z,18.21
2019-02-11T05:23:56.668Z,18.23
2019-02-11T05:24:57.824Z,18.26
2019-02-11T05:25:56.822Z,18.27
2019-02-11T05:26:57.531Z,18.29
2019-02-11T05:27:57.113Z,18.3
2019-02-11T05:28:56.737Z,18.3
2019-02-11T05:29:57.654Z,18.32
2019-02-11T05:30:57.008Z,18.34
2019-02-11T05:31:57.169Z,18.35
2019-02-11T05:32:56.802Z,18.36
2019-02-11T05:33:56.689Z,18.38
2019-02-11T05:34:56.927Z,18.38
2019-02-11T05:35:57.275Z,18.4
2019-02-11T05:36:57.119Z,18.42
2019-02-11T05:37:56.730Z,18.42
2019-02-11T05:38:56.617Z,18.43
2019-02-11T05:39:56.817Z,18.44
2019-02-11T05:40:56.603Z,18.45
2019-02-11T05:41:56.909Z,18.46
2019-02-11T05:42:57.172Z,18.48
2019-02-11T05:43:56.664Z,18.5
2019-02-11T05:44:56.881Z,18.52
2019-02-11T05:45:56.971Z,18.53
2019-02-11T05:46:56.687Z,18.53
2019-02-11T05:47:57.160Z,18.54
2019-02-11T05:48:57.006Z,18.54
2019-02-11T05:49:57.182Z,18.56
2019-02-11T05:50:57.478Z,18.57
2019-02-11T05:51:56.616Z,18.57
2019-02-11T05:52:56.833Z,18.58
2019-02-11T05:53:56.679Z,18.59
2019-02-11T05:54:56.921Z,18.6
2019-02-11T05:55:56.724Z,18.61
2019-02-11T05:56:57.038Z,18.61
2019-02-11T05:57:57.133Z,18.62
2019-02-11T05:58:58.621Z,18.63
2019-02-11T05:59:57.456Z,18.63
2019-02-11T06:00:56.775Z,18.63
2019-02-11T06:01:57.151Z,18.68
2019-02-11T06:02:56.547Z,18.68
2019-02-11T06:03:56.861Z,18.68
2019-02-11T06:04:56.758Z,18.69
2019-02-11T06:05:57.188Z,18.7
2019-02-11T06:06:57.507Z,18.71
2019-02-11T06:07:57.818Z,18.72
2019-02-11T06:08:56.697Z,18.73
2019-02-11T06:09:56.705Z,18.73
2019-02-11T06:10:56.916Z,18.75
2019-02-11T06:11:56.867Z,18.75
2019-02-11T06:12:57.653Z,18.76
2019-02-11T06:13:56.509Z,18.78
2019-02-11T06:15:03.892Z,18.78
2019-02-11T06:15:57.242Z,18.8
2019-02-11T06:16:56.627Z,18.8
2019-02-11T06:17:56.976Z,18.81
2019-02-11T06:18:57.383Z,18.82
2019-02-11T06:19:56.738Z,18.82
2019-02-11T06:20:56.720Z,18.83
2019-02-11T06:21:57.508Z,18.83
2019-02-11T06:22:57.535Z,18.84
2019-02-11T06:23:57.673Z,18.87
2019-02-11T06:24:57.004Z,18.86
2019-02-11T06:25:56.723Z,18.83
2019-02-11T06:26:57.963Z,18.83
2019-02-11T06:27:58.507Z,18.83
2019-02-11T06:28:57.135Z,18.84
2019-02-11T06:29:58.442Z,18.82
2019-02-11T06:30:56.970Z,18.82
2019-02-11T06:31:57.035Z,18.81
2019-02-11T06:32:57.024Z,18.81
2019-02-11T06:33:57.303Z,18.8
2019-02-11T06:34:56.717Z,18.81
2019-02-11T06:35:56.789Z,18.81
2019-02-11T06:36:57.093Z,18.8
2019-02-11T06:37:56.710Z,18.8
2019-02-11T06:38:56.925Z,18.81
2019-02-11T06:39:56.790Z,18.79
2019-02-11T06:40:57.750Z,18.79
2019-02-11T06:41:57.322Z,18.79
2019-02-11T06:42:56.919Z,18.78
2019-02-11T06:43:56.864Z,18.78
2019-02-11T06:44:57.669Z,18.78
2019-02-11T06:45:56.836Z,18.77
2019-02-11T06:46:56.771Z,18.76
2019-02-11T06:47:56.711Z,18.76
2019-02-11T06:48:57.188Z,18.75
2019-02-11T06:49:56.628Z,18.75
2019-02-11T06:50:56.752Z,18.76
2019-02-11T06:51:57.421Z,18.74
2019-02-11T06:52:56.651Z,18.74
2019-02-11T06:53:56.759Z,18.75
2019-02-11T06:54:56.807Z,18.74
2019-02-11T06:55:56.825Z,18.74
2019-02-11T06:56:57.662Z,18.73
2019-02-11T06:57:56.915Z,18.74
2019-02-11T06:58:56.858Z,18.73
2019-02-11T06:59:56.734Z,18.72
2019-02-11T07:00:57.912Z,18.72
2019-02-11T07:01:56.886Z,18.71
2019-02-11T07:02:56.973Z,18.72
2019-02-11T07:03:56.664Z,18.72
2019-02-11T07:04:57.343Z,18.71
2019-02-11T07:05:56.698Z,18.71
2019-02-11T07:06:56.791Z,18.71
2019-02-11T07:07:58.627Z,18.7
2019-02-11T07:08:56.813Z,18.69
2019-02-11T07:09:57.117Z,18.71
2019-02-11T07:10:56.743Z,18.7
2019-02-11T07:11:56.957Z,18.7
2019-02-11T07:12:56.736Z,18.69
2019-02-11T07:13:57.163Z,18.7
2019-02-11T07:14:56.556Z,18.69
2019-02-11T07:15:56.616Z,18.68
2019-02-11T07:16:56.619Z,18.69
2019-02-11T07:17:56.680Z,18.69
2019-02-11T07:18:56.676Z,18.69
2019-02-11T07:19:56.582Z,18.69
2019-02-11T07:20:56.781Z,18.68
2019-02-11T07:21:57.475Z,18.68
2019-02-11T07:22:57.000Z,18.68
2019-02-11T07:23:56.893Z,18.68
2019-02-11T07:24:56.958Z,18.68
2019-02-11T07:25:56.829Z,18.68
2019-02-11T07:26:56.970Z,18.69
2019-02-11T07:27:57.334Z,18.68
2019-02-11T07:28:57.039Z,18.67
2019-02-11T07:29:56.869Z,18.67
2019-02-11T07:30:56.458Z,18.67
2019-02-11T07:31:56.637Z,18.67
2019-02-11T07:32:57.079Z,18.68
2019-02-11T07:33:56.738Z,18.68
2019-02-11T07:34:56.645Z,18.68
2019-02-11T07:35:57.046Z,18.67
2019-02-11T07:36:57.043Z,18.67
2019-02-11T07:37:56.517Z,18.69
2019-02-11T07:38:57.141Z,18.68
2019-02-11T07:39:57.253Z,18.68
2019-02-11T07:40:57.022Z,18.68
2019-02-11T07:41:57.163Z,18.68
2019-02-11T07:42:57.157Z,18.69
2019-02-11T07:43:56.729Z,18.69
2019-02-11T07:44:57.020Z,18.7
2019-02-11T07:45:56.626Z,18.69
2019-02-11T07:46:57.237Z,18.69
2019-02-11T07:47:56.599Z,18.68
2019-02-11T07:48:56.642Z,18.67
2019-02-11T07:49:58.602Z,18.66
2019-02-11T07:50:56.534Z,18.68
2019-02-11T07:51:57.103Z,18.69
2019-02-11T07:52:57.176Z,18.69
2019-02-11T07:53:56.899Z,18.69
2019-02-11T07:54:56.626Z,18.69
2019-02-11T07:55:57.247Z,18.69
2019-02-11T07:56:56.802Z,18.69
2019-02-11T07:57:57.388Z,18.69
2019-02-11T07:58:56.811Z,18.7
2019-02-11T07:59:57.327Z,18.7
2019-02-11T08:00:56.974Z,18.7
2019-02-11T08:01:57.227Z,18.69
2019-02-11T08:02:57.710Z,18.71
2019-02-11T08:03:57.296Z,18.72
2019-02-11T08:04:57.242Z,18.72
2019-02-11T08:05:56.730Z,18.72
2019-02-11T08:06:56.889Z,18.73
2019-02-11T08:07:57.556Z,18.73
2019-02-11T08:08:56.624Z,18.74
2019-02-11T08:09:57.151Z,18.74
2019-02-11T08:10:56.675Z,18.74
2019-02-11T08:11:57.197Z,18.74
2019-02-11T08:12:56.646Z,18.74
2019-02-11T08:13:56.667Z,18.75
2019-02-11T08:14:56.783Z,18.75
2019-02-11T08:15:57.608Z,18.74
2019-02-11T08:16:56.718Z,18.74
2019-02-11T08:17:58.147Z,18.75
2019-02-11T08:18:56.913Z,18.75
2019-02-11T08:19:58.604Z,18.75
2019-02-11T08:20:57.355Z,18.76
2019-02-11T08:21:57.723Z,18.75
2019-02-11T08:22:56.967Z,18.77
2019-02-11T08:23:56.732Z,18.76
2019-02-11T08:24:57.378Z,18.76
2019-02-11T08:25:57.088Z,18.77
2019-02-11T08:26:56.895Z,18.77
2019-02-11T08:27:56.687Z,18.76
2019-02-11T08:28:56.998Z,18.77
2019-02-11T08:29:57.019Z,18.76
2019-02-11T08:30:56.931Z,18.77
2019-02-11T08:31:56.790Z,18.77
2019-02-11T08:32:57.332Z,18.78
2019-02-11T08:33:58.061Z,18.78
2019-02-11T08:34:57.533Z,18.78
2019-02-11T08:35:56.996Z,18.77
2019-02-11T08:36:56.942Z,18.77
2019-02-11T08:37:58.443Z,18.78
2019-02-11T08:38:56.862Z,18.77
2019-02-11T08:39:57.177Z,18.77
2019-02-11T08:40:56.658Z,18.77
2019-02-11T08:41:56.778Z,18.76
2019-02-11T08:42:57.704Z,18.76
2019-02-11T08:43:58.175Z,18.77
2019-02-11T08:44:57.102Z,18.77
2019-02-11T08:45:57.338Z,18.76
2019-02-11T08:46:56.826Z,18.76
2019-02-11T08:47:56.672Z,18.75
2019-02-11T08:48:56.638Z,18.75
2019-02-11T08:49:56.625Z,18.76
2019-02-11T08:50:56.561Z,18.76
2019-02-11T08:51:57.375Z,18.75
2019-02-11T08:52:57.154Z,18.76
2019-02-11T08:53:57.410Z,18.76
2019-02-11T08:54:57.441Z,18.75
2019-02-11T08:55:57.087Z,18.75
2019-02-11T08:56:57.463Z,18.75
2019-02-11T08:57:56.835Z,18.74
2019-02-11T08:58:56.676Z,18.75
2019-02-11T08:59:57.348Z,18.75
2019-02-11T09:00:57.316Z,18.74
2019-02-11T09:01:58.430Z,18.74
2019-02-11T09:02:58.520Z,18.74
2019-02-11T09:03:57.155Z,18.74
2019-02-11T09:04:56.599Z,18.74
2019-02-11T09:05:56.686Z,18.73
2019-02-11T09:06:58.635Z,18.74
2019-02-11T09:07:57.085Z,18.74
2019-02-11T09:08:57.317Z,18.74
2019-02-11T09:09:56.677Z,18.74
2019-02-11T09:10:56.892Z,18.74
2019-02-11T09:11:56.883Z,18.73
2019-02-11T09:12:57.016Z,18.73
2019-02-11T09:13:56.849Z,18.73
2019-02-11T09:14:56.785Z,18.72
2019-02-11T09:15:56.478Z,18.72
2019-02-11T09:16:57.160Z,18.72
2019-02-11T09:17:57.346Z,18.71
2019-02-11T09:18:56.850Z,18.72
2019-02-11T09:19:57.167Z,18.71
2019-02-11T09:20:57.063Z,18.7
2019-02-11T09:21:56.778Z,18.7
2019-02-11T09:22:56.674Z,18.71
2019-02-11T09:23:56.686Z,18.72
2019-02-11T09:24:56.899Z,18.71
2019-02-11T09:25:57.613Z,18.7
2019-02-11T09:26:56.937Z,18.71
2019-02-11T09:27:56.923Z,18.71
2019-02-11T09:28:56.596Z,18.69
2019-02-11T09:29:56.932Z,18.7
2019-02-11T09:30:57.038Z,18.7
2019-02-11T09:31:57.459Z,18.7
2019-02-11T09:32:56.950Z,18.7
2019-02-11T09:33:56.848Z,18.69
2019-02-11T09:34:57.556Z,18.7
2019-02-11T09:35:57.376Z,18.69
2019-02-11T09:36:57.713Z,18.69
2019-02-11T09:37:56.746Z,18.69
2019-02-11T09:38:56.702Z,18.69
2019-02-11T09:39:56.944Z,18.69
2019-02-11T09:40:57.115Z,18.68
2019-02-11T09:41:57.368Z,18.69
2019-02-11T09:42:56.871Z,18.69
2019-02-11T09:43:56.948Z,18.7
2019-02-11T09:44:57.237Z,18.7
2019-02-11T09:46:03.686Z,18.74
2019-02-11T09:46:57.483Z,18.75
2019-02-11T09:47:56.969Z,18.75
2019-02-11T09:48:57.070Z,18.76
2019-02-11T09:49:56.885Z,18.77
2019-02-11T09:50:56.698Z,18.79
2019-02-11T09:51:56.999Z,18.8
2019-02-11T09:52:56.897Z,18.82
2019-02-11T09:53:56.970Z,18.83
2019-02-11T09:54:56.636Z,18.84
2019-02-11T09:55:57.126Z,18.87
2019-02-11T09:56:56.650Z,18.88
2019-02-11T09:57:56.788Z,18.89
2019-02-11T09:58:56.887Z,18.91
2019-02-11T09:59:57.360Z,18.92
2019-02-11T10:00:57.366Z,18.94
2019-02-11T10:01:57.041Z,18.96
2019-02-11T10:02:57.374Z,18.98
2019-02-11T10:03:56.563Z,18.99
2019-02-11T10:04:57.589Z,19.01
2019-02-11T10:05:56.995Z,19.02
2019-02-11T10:06:56.995Z,19.05
2019-02-11T10:07:56.997Z,19.06
2019-02-11T10:08:57.027Z,19.08
2019-02-11T10:09:56.880Z,19.09
2019-02-11T10:10:57.330Z,19.11
2019-02-11T10:11:57.122Z,19.13
2019-02-11T10:12:57.130Z,19.15
2019-02-11T10:13:56.854Z,19.16
2019-02-11T10:14:56.713Z,19.17
2019-02-11T10:15:56.862Z,19.14
2019-02-11T10:16:57.065Z,19.11
2019-02-11T10:17:57.065Z,19.14
2019-02-11T10:18:56.554Z,19.16
2019-02-11T10:19:56.705Z,19.18
2019-02-11T10:20:56.602Z,19.2
2019-02-11T10:21:56.504Z,19.21
2019-02-11T10:22:57.220Z,19.22
2019-02-11T10:23:56.708Z,19.23
2019-02-11T10:24:57.020Z,19.25
2019-02-11T10:25:56.781Z,19.27
2019-02-11T10:26:56.466Z,19.27
2019-02-11T10:27:57.100Z,19.29
2019-02-11T10:28:56.680Z,19.32
2019-02-11T10:29:56.862Z,19.32
2019-02-11T10:30:57.179Z,19.33
2019-02-11T10:31:58.409Z,19.33
2019-02-11T10:32:58.466Z,19.35
2019-02-11T10:33:56.977Z,19.36
2019-02-11T10:34:56.836Z,19.38
2019-02-11T10:35:56.702Z,19.4
2019-02-11T10:36:56.791Z,19.41
2019-02-11T10:37:56.967Z,19.41
2019-02-11T10:38:56.579Z,19.44
2019-02-11T10:39:56.779Z,19.45
2019-02-11T10:40:56.723Z,19.48
2019-02-11T10:41:57.157Z,19.47
2019-02-11T10:42:57.050Z,19.48
2019-02-11T10:43:57.521Z,19.5
2019-02-11T10:44:57.708Z,19.52
2019-02-11T10:45:56.817Z,19.53
2019-02-11T10:46:56.647Z,19.53
2019-02-11T10:47:56.956Z,19.55
2019-02-11T10:48:56.752Z,19.55
2019-02-11T10:49:56.611Z,19.58
2019-02-11T10:50:56.902Z,19.57
2019-02-11T10:51:56.810Z,19.57
2019-02-11T10:52:56.888Z,19.59
2019-02-11T10:53:57.664Z,19.61
2019-02-11T10:54:56.891Z,19.59
2019-02-11T10:55:56.694Z,19.61
2019-02-11T10:56:58.415Z,19.63
2019-02-11T10:57:56.950Z,19.63
2019-02-11T10:58:57.068Z,19.64
2019-02-11T10:59:56.884Z,19.64
2019-02-11T11:00:57.808Z,19.66
2019-02-11T11:01:56.669Z,19.67
2019-02-11T11:02:56.639Z,19.68
2019-02-11T11:03:56.683Z,19.68
2019-02-11T11:04:56.816Z,19.69
2019-02-11T11:05:57.327Z,19.7
2019-02-11T11:06:56.510Z,19.71
2019-02-11T11:07:56.546Z,19.73
2019-02-11T11:08:56.611Z,19.72
2019-02-11T11:09:56.702Z,19.72
2019-02-11T11:10:57.069Z,19.76
2019-02-11T11:11:56.508Z,19.74
2019-02-11T11:12:56.396Z,19.76
2019-02-11T11:13:56.567Z,19.76
2019-02-11T11:14:56.771Z,19.77
2019-02-11T11:15:56.594Z,19.78
2019-02-11T11:16:56.991Z,19.78
2019-02-11T11:17:56.771Z,19.78
2019-02-11T11:18:56.987Z,19.81
2019-02-11T11:19:56.713Z,19.8
2019-02-11T11:20:58.357Z,19.82
2019-02-11T11:21:57.000Z,19.82
2019-02-11T11:22:57.125Z,19.83
2019-02-11T11:23:58.250Z,19.83
2019-02-11T11:24:56.926Z,19.84
2019-02-11T11:25:56.834Z,19.85
2019-02-11T11:26:56.965Z,19.86
2019-02-11T11:27:56.948Z,19.85
2019-02-11T11:28:57.127Z,19.87
2019-02-11T11:29:56.658Z,19.87
2019-02-11T11:30:57.076Z,19.89
2019-02-11T11:31:58.082Z,19.89
2019-02-11T11:32:57.783Z,19.89
2019-02-11T11:33:56.336Z,19.89
2019-02-11T11:34:56.633Z,19.9
2019-02-11T11:35:56.572Z,19.91
2019-02-11T11:36:56.830Z,19.92
2019-02-11T11:37:57.275Z,19.92
2019-02-11T11:38:56.955Z,19.92
2019-02-11T11:39:56.971Z,19.93
2019-02-11T11:40:56.952Z,19.93
2019-02-11T11:41:56.861Z,19.94
2019-02-11T11:42:56.866Z,19.95
2019-02-11T11:43:56.640Z,19.97
2019-02-11T11:44:57.212Z,19.94
2019-02-11T11:45:56.789Z,19.93
2019-02-11T11:46:56.794Z,19.94
2019-02-11T11:47:56.714Z,19.93
2019-02-11T11:48:56.915Z,19.93
2019-02-11T11:49:56.914Z,19.93
2019-02-11T11:50:56.820Z,19.93
2019-02-11T11:51:56.867Z,19.93
2019-02-11T11:52:56.929Z,19.93
2019-02-11T11:53:56.665Z,19.94
2019-02-11T11:54:56.846Z,19.95
2019-02-11T11:55:56.965Z,19.95
2019-02-11T11:56:59.337Z,19.97
2019-02-11T11:57:56.867Z,19.96
2019-02-11T11:58:56.977Z,19.97
2019-02-11T11:59:56.798Z,19.97
2019-02-11T12:00:56.833Z,19.96
2019-02-11T12:01:57.433Z,19.98
2019-02-11T12:03:02.411Z,19.99
2019-02-11T12:03:58.468Z,20
2019-02-11T12:04:56.965Z,19.99
2019-02-11T12:05:56.857Z,20.01
2019-02-11T12:06:56.946Z,20.01
2019-02-11T12:07:56.734Z,20.01
2019-02-11T12:08:59.110Z,20.08
2019-02-11T12:09:57.080Z,20.03
2019-02-11T12:10:56.771Z,20.03
2019-02-11T12:11:56.823Z,20.01
2019-02-11T12:12:56.570Z,20.03
2019-02-11T12:13:57.211Z,20.02
2019-02-11T12:14:56.390Z,20.03
2019-02-11T12:15:56.772Z,20.02
2019-02-11T12:17:02.357Z,20.02
2019-02-11T12:17:57.426Z,20.02
2019-02-11T12:18:57.243Z,20.03
2019-02-11T12:19:58.578Z,20.03
2019-02-11T12:20:57.353Z,20.02
2019-02-11T12:21:56.680Z,20.02
2019-02-11T12:22:56.867Z,20.03
2019-02-11T12:23:58.409Z,20.02
2019-02-11T12:24:56.676Z,20.02
2019-02-11T12:25:56.565Z,20.02
2019-02-11T12:26:56.982Z,20.02
2019-02-11T12:27:56.986Z,20.01
2019-02-11T12:28:56.771Z,20.02
2019-02-11T12:29:56.516Z,20.02
2019-02-11T12:30:57.021Z,20.02
2019-02-11T12:31:57.037Z,20.02
2019-02-11T12:32:57.039Z,20.01
2019-02-11T12:33:56.633Z,20.02
2019-02-11T12:34:56.360Z,20.01
2019-02-11T12:35:57.477Z,20.02
2019-02-11T12:36:57.506Z,20.01
2019-02-11T12:37:56.622Z,20
2019-02-11T12:38:56.667Z,20.01
2019-02-11T12:39:56.712Z,20
2019-02-11T12:40:56.611Z,19.99
2019-02-11T12:41:57.014Z,19.99
2019-02-11T12:42:56.529Z,19.99
2019-02-11T12:43:57.053Z,19.99
2019-02-11T12:44:56.921Z,19.99
2019-02-11T12:45:57.209Z,19.98
2019-02-11T12:47:12.745Z,19.99
2019-02-11T12:47:56.611Z,19.99
2019-02-11T12:48:56.647Z,19.98
2019-02-11T12:49:56.644Z,19.98
2019-02-11T12:50:57.034Z,19.98
2019-02-11T12:51:56.502Z,19.98
2019-02-11T12:52:56.515Z,19.99
2019-02-11T12:53:56.759Z,19.98
2019-02-11T12:54:56.708Z,20.02
2019-02-11T12:56:01.848Z,20.02